sensor_id;sensor_type;location;lat;lon;timestamp;P1;durP1;ratioP1;P2;durP2;ratioP2
9449;SDS011;4763;48.370;10.874;2023-08-06T00:00:59;3.50;;;2.57;;
9449;SDS011;4763;48.370;10.874;2023-08-06T00:03:26;4.07;;;2.53;;
9449;SDS011;4763;48.370;10.874;2023-08-06T00:05:54;2.87;;;2.40;;
9449;SDS011;4763;48.370;10.874;2023-08-06T00:08:21;3.97;;;2.70;;
9449;SDS011;4763;48.370;10.874;2023-08-06T00:10:48;2.63;;;2.43;;
9449;SDS011;4763;48.370;10.874;2023-08-06T00:13:15;2.87;;;2.40;;
9449;SDS011;4763;48.370;10.874;2023-08-06T00:15:41;4.63;;;2.70;;
9449;SDS011;4763;48.370;10.874;2023-08-06T00:18:08;2.70;;;2.50;;
9449;SDS011;4763;48.370;10.874;2023-08-06T00:20:38;3.03;;;2.23;;
9449;SDS011;4763;48.370;10.874;2023-08-06T00:23:09;2.37;;;2.17;;
9449;SDS011;4763;48.370;10.874;2023-08-06T00:25:36;3.37;;;2.50;;
9449;SDS011;4763;48.370;10.874;2023-08-06T00:28:03;2.90;;;2.23;;
9449;SDS011;4763;48.370;10.874;2023-08-06T00:30:30;5.83;;;2.87;;
9449;SDS011;4763;48.370;10.874;2023-08-06T00:32:57;2.60;;;2.40;;
9449;SDS011;4763;48.370;10.874;2023-08-06T00:35:24;3.33;;;2.87;;
9449;SDS011;4763;48.370;10.874;2023-08-06T00:37:51;3.57;;;2.50;;
9449;SDS011;4763;48.370;10.874;2023-08-06T00:40:21;2.83;;;2.40;;
9449;SDS011;4763;48.370;10.874;2023-08-06T00:42:48;6.07;;;2.80;;
9449;SDS011;4763;48.370;10.874;2023-08-06T00:45:17;3.10;;;2.80;;
9449;SDS011;4763;48.370;10.874;2023-08-06T00:47:44;5.27;;;2.40;;
9449;SDS011;4763;48.370;10.874;2023-08-06T00:50:11;2.97;;;2.50;;
9449;SDS011;4763;48.370;10.874;2023-08-06T00:52:38;4.57;;;2.70;;
9449;SDS011;4763;48.370;10.874;2023-08-06T00:55:06;4.73;;;2.90;;
9449;SDS011;4763;48.370;10.874;2023-08-06T00:57:35;3.50;;;2.87;;
9449;SDS011;4763;48.370;10.874;2023-08-06T01:00:02;7.07;;;3.03;;
9449;SDS011;4763;48.370;10.874;2023-08-06T01:02:30;3.50;;;3.20;;
9449;SDS011;4763;48.370;10.874;2023-08-06T01:04:57;3.33;;;3.03;;
9449;SDS011;4763;48.370;10.874;2023-08-06T01:07:28;3.37;;;2.93;;
9449;SDS011;4763;48.370;10.874;2023-08-06T01:10:19;3.23;;;2.50;;
9449;SDS011;4763;48.370;10.874;2023-08-06T01:12:59;4.73;;;3.20;;
9449;SDS011;4763;48.370;10.874;2023-08-06T01:15:35;2.70;;;2.50;;
9449;SDS011;4763;48.370;10.874;2023-08-06T01:18:06;4.43;;;2.80;;
9449;SDS011;4763;48.370;10.874;2023-08-06T01:20:35;3.27;;;2.73;;
9449;SDS011;4763;48.370;10.874;2023-08-06T01:23:02;5.60;;;2.57;;
9449;SDS011;4763;48.370;10.874;2023-08-06T01:25:29;2.80;;;2.50;;
9449;SDS011;4763;48.370;10.874;2023-08-06T01:28:00;4.23;;;2.53;;
9449;SDS011;4763;48.370;10.874;2023-08-06T01:30:33;3.97;;;2.67;;
9449;SDS011;4763;48.370;10.874;2023-08-06T01:33:03;5.20;;;2.47;;
9449;SDS011;4763;48.370;10.874;2023-08-06T01:35:31;3.63;;;2.30;;
9449;SDS011;4763;48.370;10.874;2023-08-06T01:38:03;2.77;;;2.57;;
9449;SDS011;4763;48.370;10.874;2023-08-06T01:40:30;2.43;;;1.93;;
9449;SDS011;4763;48.370;10.874;2023-08-06T01:42:58;2.30;;;2.10;;
9449;SDS011;4763;48.370;10.874;2023-08-06T01:45:24;3.37;;;2.50;;
9449;SDS011;4763;48.370;10.874;2023-08-06T01:47:51;3.10;;;2.60;;
9449;SDS011;4763;48.370;10.874;2023-08-06T01:50:18;3.20;;;2.13;;
9449;SDS011;4763;48.370;10.874;2023-08-06T01:52:45;4.43;;;2.43;;
9449;SDS011;4763;48.370;10.874;2023-08-06T01:55:13;4.77;;;2.20;;
9449;SDS011;4763;48.370;10.874;2023-08-06T01:57:40;2.97;;;2.10;;
9449;SDS011;4763;48.370;10.874;2023-08-06T02:00:07;3.13;;;2.20;;
9449;SDS011;4763;48.370;10.874;2023-08-06T02:02:34;3.30;;;2.40;;
9449;SDS011;4763;48.370;10.874;2023-08-06T02:05:01;3.77;;;2.57;;
9449;SDS011;4763;48.370;10.874;2023-08-06T02:07:28;2.87;;;2.20;;
9449;SDS011;4763;48.370;10.874;2023-08-06T02:09:55;5.10;;;2.67;;
9449;SDS011;4763;48.370;10.874;2023-08-06T02:12:23;2.30;;;2.10;;
9449;SDS011;4763;48.370;10.874;2023-08-06T02:14:50;3.33;;;2.53;;
9449;SDS011;4763;48.370;10.874;2023-08-06T02:17:17;2.73;;;2.13;;
9449;SDS011;4763;48.370;10.874;2023-08-06T02:19:43;2.90;;;2.20;;
9449;SDS011;4763;48.370;10.874;2023-08-06T02:22:10;3.47;;;2.57;;
9449;SDS011;4763;48.370;10.874;2023-08-06T02:24:37;2.67;;;2.07;;
9449;SDS011;4763;48.370;10.874;2023-08-06T02:27:04;5.50;;;2.47;;
9449;SDS011;4763;48.370;10.874;2023-08-06T02:29:32;3.87;;;2.37;;
9449;SDS011;4763;48.370;10.874;2023-08-06T02:31:59;2.70;;;2.40;;
9449;SDS011;4763;48.370;10.874;2023-08-06T02:34:27;2.77;;;2.40;;
9449;SDS011;4763;48.370;10.874;2023-08-06T02:36:54;4.93;;;2.57;;
9449;SDS011;4763;48.370;10.874;2023-08-06T02:39:20;2.47;;;2.27;;
9449;SDS011;4763;48.370;10.874;2023-08-06T02:41:47;2.63;;;2.03;;
9449;SDS011;4763;48.370;10.874;2023-08-06T02:44:14;3.93;;;2.20;;
9449;SDS011;4763;48.370;10.874;2023-08-06T02:46:43;5.10;;;2.30;;
9449;SDS011;4763;48.370;10.874;2023-08-06T02:49:10;3.37;;;2.70;;
9449;SDS011;4763;48.370;10.874;2023-08-06T02:51:37;1.83;;;1.63;;
9449;SDS011;4763;48.370;10.874;2023-08-06T02:54:04;2.50;;;2.10;;
9449;SDS011;4763;48.370;10.874;2023-08-06T02:56:31;3.40;;;2.33;;
9449;SDS011;4763;48.370;10.874;2023-08-06T02:58:57;4.27;;;2.07;;
9449;SDS011;4763;48.370;10.874;2023-08-06T03:01:25;2.73;;;2.10;;
9449;SDS011;4763;48.370;10.874;2023-08-06T03:03:54;3.07;;;2.67;;
9449;SDS011;4763;48.370;10.874;2023-08-06T03:06:21;2.30;;;2.00;;
9449;SDS011;4763;48.370;10.874;2023-08-06T03:08:48;2.27;;;2.07;;
9449;SDS011;4763;48.370;10.874;2023-08-06T03:11:15;3.03;;;2.73;;
9449;SDS011;4763;48.370;10.874;2023-08-06T03:13:42;2.90;;;2.10;;
9449;SDS011;4763;48.370;10.874;2023-08-06T03:16:08;2.33;;;2.13;;
9449;SDS011;4763;48.370;10.874;2023-08-06T03:18:35;2.23;;;1.93;;
9449;SDS011;4763;48.370;10.874;2023-08-06T03:21:03;4.37;;;2.37;;
9449;SDS011;4763;48.370;10.874;2023-08-06T03:23:33;4.57;;;2.60;;
9449;SDS011;4763;48.370;10.874;2023-08-06T03:26:01;4.77;;;2.13;;
9449;SDS011;4763;48.370;10.874;2023-08-06T03:28:27;3.93;;;2.37;;
9449;SDS011;4763;48.370;10.874;2023-08-06T03:31:01;4.30;;;2.33;;
9449;SDS011;4763;48.370;10.874;2023-08-06T03:33:29;2.73;;;2.30;;
9449;SDS011;4763;48.370;10.874;2023-08-06T03:35:56;2.23;;;2.03;;
9449;SDS011;4763;48.370;10.874;2023-08-06T03:38:24;2.60;;;2.27;;
9449;SDS011;4763;48.370;10.874;2023-08-06T03:40:51;2.83;;;2.40;;
9449;SDS011;4763;48.370;10.874;2023-08-06T03:43:17;5.33;;;2.10;;
9449;SDS011;4763;48.370;10.874;2023-08-06T03:45:44;3.43;;;2.40;;
9449;SDS011;4763;48.370;10.874;2023-08-06T03:48:11;3.77;;;2.67;;
9449;SDS011;4763;48.370;10.874;2023-08-06T03:50:38;2.23;;;2.03;;
9449;SDS011;4763;48.370;10.874;2023-08-06T03:53:04;2.00;;;1.90;;
9449;SDS011;4763;48.370;10.874;2023-08-06T03:55:33;3.40;;;2.47;;
9449;SDS011;4763;48.370;10.874;2023-08-06T03:58:00;2.93;;;2.10;;
9449;SDS011;4763;48.370;10.874;2023-08-06T04:00:27;2.10;;;1.90;;
9449;SDS011;4763;48.370;10.874;2023-08-06T04:02:53;4.30;;;2.10;;
9449;SDS011;4763;48.370;10.874;2023-08-06T04:05:20;2.37;;;2.03;;
9449;SDS011;4763;48.370;10.874;2023-08-06T04:07:47;2.97;;;2.50;;
9449;SDS011;4763;48.370;10.874;2023-08-06T04:10:14;4.43;;;1.80;;
9449;SDS011;4763;48.370;10.874;2023-08-06T04:12:42;2.40;;;2.10;;
9449;SDS011;4763;48.370;10.874;2023-08-06T04:15:09;2.27;;;2.03;;
9449;SDS011;4763;48.370;10.874;2023-08-06T04:17:36;2.77;;;2.33;;
9449;SDS011;4763;48.370;10.874;2023-08-06T04:20:03;2.57;;;1.90;;
9449;SDS011;4763;48.370;10.874;2023-08-06T04:22:31;3.37;;;2.10;;
9449;SDS011;4763;48.370;10.874;2023-08-06T04:24:57;2.57;;;1.97;;
9449;SDS011;4763;48.370;10.874;2023-08-06T04:27:24;2.70;;;2.10;;
9449;SDS011;4763;48.370;10.874;2023-08-06T04:29:53;3.07;;;2.07;;
9449;SDS011;4763;48.370;10.874;2023-08-06T04:32:19;4.53;;;2.33;;
9449;SDS011;4763;48.370;10.874;2023-08-06T04:34:46;3.30;;;2.00;;
9449;SDS011;4763;48.370;10.874;2023-08-06T04:37:13;1.90;;;1.70;;
9449;SDS011;4763;48.370;10.874;2023-08-06T04:39:40;4.40;;;2.27;;
9449;SDS011;4763;48.370;10.874;2023-08-06T04:42:07;2.23;;;1.90;;
9449;SDS011;4763;48.370;10.874;2023-08-06T04:44:34;2.97;;;2.00;;
9449;SDS011;4763;48.370;10.874;2023-08-06T04:47:02;2.27;;;2.03;;
9449;SDS011;4763;48.370;10.874;2023-08-06T04:49:29;2.70;;;2.23;;
9449;SDS011;4763;48.370;10.874;2023-08-06T04:51:55;3.87;;;2.20;;
9449;SDS011;4763;48.370;10.874;2023-08-06T04:54:22;4.60;;;2.10;;
9449;SDS011;4763;48.370;10.874;2023-08-06T04:56:49;4.33;;;2.30;;
9449;SDS011;4763;48.370;10.874;2023-08-06T04:59:16;2.47;;;2.07;;
9449;SDS011;4763;48.370;10.874;2023-08-06T05:01:43;2.60;;;2.03;;
9449;SDS011;4763;48.370;10.874;2023-08-06T05:04:11;3.30;;;2.23;;
9449;SDS011;4763;48.370;10.874;2023-08-06T05:06:37;2.27;;;1.97;;
9449;SDS011;4763;48.370;10.874;2023-08-06T05:09:05;3.03;;;1.90;;
9449;SDS011;4763;48.370;10.874;2023-08-06T05:11:35;2.43;;;2.10;;
9449;SDS011;4763;48.370;10.874;2023-08-06T05:14:02;2.50;;;1.93;;
9449;SDS011;4763;48.370;10.874;2023-08-06T05:16:28;2.77;;;1.73;;
9449;SDS011;4763;48.370;10.874;2023-08-06T05:18:55;2.73;;;2.00;;
9449;SDS011;4763;48.370;10.874;2023-08-06T05:21:23;2.43;;;2.23;;
9449;SDS011;4763;48.370;10.874;2023-08-06T05:23:52;2.10;;;1.87;;
9449;SDS011;4763;48.370;10.874;2023-08-06T05:26:19;2.63;;;2.13;;
9449;SDS011;4763;48.370;10.874;2023-08-06T05:28:46;3.77;;;2.23;;
9449;SDS011;4763;48.370;10.874;2023-08-06T05:31:13;2.70;;;2.03;;
9449;SDS011;4763;48.370;10.874;2023-08-06T05:33:42;2.90;;;1.97;;
9449;SDS011;4763;48.370;10.874;2023-08-06T05:36:09;3.90;;;2.07;;
9449;SDS011;4763;48.370;10.874;2023-08-06T05:38:40;2.63;;;2.00;;
9449;SDS011;4763;48.370;10.874;2023-08-06T05:41:07;2.80;;;1.80;;
9449;SDS011;4763;48.370;10.874;2023-08-06T05:43:34;2.43;;;1.93;;
9449;SDS011;4763;48.370;10.874;2023-08-06T05:46:00;2.37;;;1.83;;
9449;SDS011;4763;48.370;10.874;2023-08-06T05:48:27;2.57;;;2.00;;
9449;SDS011;4763;48.370;10.874;2023-08-06T05:50:57;3.40;;;1.90;;
9449;SDS011;4763;48.370;10.874;2023-08-06T05:53:24;1.83;;;1.70;;
9449;SDS011;4763;48.370;10.874;2023-08-06T05:55:52;2.63;;;2.03;;
9449;SDS011;4763;48.370;10.874;2023-08-06T05:58:19;4.23;;;1.93;;
9449;SDS011;4763;48.370;10.874;2023-08-06T06:00:46;2.17;;;1.90;;
9449;SDS011;4763;48.370;10.874;2023-08-06T06:03:13;2.10;;;1.70;;
9449;SDS011;4763;48.370;10.874;2023-08-06T06:05:39;2.47;;;1.70;;
9449;SDS011;4763;48.370;10.874;2023-08-06T06:08:09;2.50;;;1.63;;
9449;SDS011;4763;48.370;10.874;2023-08-06T06:10:36;1.50;;;1.40;;
9449;SDS011;4763;48.370;10.874;2023-08-06T06:13:04;2.93;;;1.70;;
9449;SDS011;4763;48.370;10.874;2023-08-06T06:15:31;3.73;;;1.40;;
9449;SDS011;4763;48.370;10.874;2023-08-06T06:17:58;3.63;;;1.77;;
9449;SDS011;4763;48.370;10.874;2023-08-06T06:20:26;3.43;;;1.83;;
9449;SDS011;4763;48.370;10.874;2023-08-06T06:22:58;2.33;;;1.53;;
9449;SDS011;4763;48.370;10.874;2023-08-06T06:25:25;2.63;;;1.60;;
9449;SDS011;4763;48.370;10.874;2023-08-06T06:27:58;2.43;;;1.90;;
9449;SDS011;4763;48.370;10.874;2023-08-06T06:30:27;2.70;;;1.63;;
9449;SDS011;4763;48.370;10.874;2023-08-06T06:32:54;2.57;;;1.63;;
9449;SDS011;4763;48.370;10.874;2023-08-06T06:35:21;2.53;;;1.70;;
9449;SDS011;4763;48.370;10.874;2023-08-06T06:37:48;1.87;;;1.67;;
9449;SDS011;4763;48.370;10.874;2023-08-06T06:40:15;2.80;;;1.67;;
9449;SDS011;4763;48.370;10.874;2023-08-06T06:42:48;5.03;;;1.60;;
9449;SDS011;4763;48.370;10.874;2023-08-06T06:45:18;1.77;;;1.37;;
9449;SDS011;4763;48.370;10.874;2023-08-06T06:48:12;1.20;;;1.10;;
9449;SDS011;4763;48.370;10.874;2023-08-06T06:50:39;2.10;;;1.30;;
9449;SDS011;4763;48.370;10.874;2023-08-06T06:53:08;1.67;;;1.10;;
9449;SDS011;4763;48.370;10.874;2023-08-06T06:55:35;3.63;;;1.07;;
9449;SDS011;4763;48.370;10.874;2023-08-06T06:58:02;2.33;;;1.20;;
9449;SDS011;4763;48.370;10.874;2023-08-06T07:00:28;1.83;;;1.43;;
9449;SDS011;4763;48.370;10.874;2023-08-06T07:02:55;1.90;;;1.10;;
9449;SDS011;4763;48.370;10.874;2023-08-06T07:05:23;1.20;;;1.10;;
9449;SDS011;4763;48.370;10.874;2023-08-06T07:07:51;1.63;;;1.03;;
9449;SDS011;4763;48.370;10.874;2023-08-06T07:10:18;3.50;;;1.40;;
9449;SDS011;4763;48.370;10.874;2023-08-06T07:12:45;5.57;;;1.73;;
9449;SDS011;4763;48.370;10.874;2023-08-06T07:15:12;2.03;;;1.10;;
9449;SDS011;4763;48.370;10.874;2023-08-06T07:17:39;2.17;;;1.50;;
9449;SDS011;4763;48.370;10.874;2023-08-06T07:20:06;1.37;;;1.10;;
9449;SDS011;4763;48.370;10.874;2023-08-06T07:22:35;3.33;;;1.40;;
9449;SDS011;4763;48.370;10.874;2023-08-06T07:25:02;1.60;;;1.30;;
9449;SDS011;4763;48.370;10.874;2023-08-06T07:27:29;2.37;;;1.47;;
9449;SDS011;4763;48.370;10.874;2023-08-06T07:29:55;1.20;;;1.10;;
9449;SDS011;4763;48.370;10.874;2023-08-06T07:32:23;1.37;;;1.10;;
9449;SDS011;4763;48.370;10.874;2023-08-06T07:34:50;3.70;;;1.33;;
9449;SDS011;4763;48.370;10.874;2023-08-06T07:37:21;1.07;;;0.97;;
9449;SDS011;4763;48.370;10.874;2023-08-06T07:39:49;3.43;;;1.60;;
9449;SDS011;4763;48.370;10.874;2023-08-06T07:42:16;2.30;;;1.10;;
9449;SDS011;4763;48.370;10.874;2023-08-06T07:44:49;1.47;;;1.07;;
9449;SDS011;4763;48.370;10.874;2023-08-06T07:47:17;1.10;;;0.93;;
9449;SDS011;4763;48.370;10.874;2023-08-06T07:49:44;3.00;;;1.07;;
9449;SDS011;4763;48.370;10.874;2023-08-06T07:52:11;2.33;;;1.10;;
9449;SDS011;4763;48.370;10.874;2023-08-06T07:54:38;0.80;;;0.80;;
9449;SDS011;4763;48.370;10.874;2023-08-06T07:57:06;1.00;;;0.90;;
9449;SDS011;4763;48.370;10.874;2023-08-06T07:59:33;4.93;;;0.93;;
9449;SDS011;4763;48.370;10.874;2023-08-06T08:02:00;3.23;;;1.33;;
9449;SDS011;4763;48.370;10.874;2023-08-06T08:04:27;1.13;;;1.03;;
9449;SDS011;4763;48.370;10.874;2023-08-06T08:06:54;1.13;;;0.87;;
9449;SDS011;4763;48.370;10.874;2023-08-06T08:09:24;1.90;;;1.10;;
9449;SDS011;4763;48.370;10.874;2023-08-06T08:11:50;0.70;;;0.60;;
9449;SDS011;4763;48.370;10.874;2023-08-06T08:14:18;1.07;;;0.63;;
9449;SDS011;4763;48.370;10.874;2023-08-06T08:16:45;3.30;;;1.20;;
9449;SDS011;4763;48.370;10.874;2023-08-06T08:19:12;1.43;;;0.70;;
9449;SDS011;4763;48.370;10.874;2023-08-06T08:21:39;1.13;;;0.60;;
9449;SDS011;4763;48.370;10.874;2023-08-06T08:24:06;1.17;;;0.90;;
9449;SDS011;4763;48.370;10.874;2023-08-06T08:26:32;3.73;;;0.77;;
9449;SDS011;4763;48.370;10.874;2023-08-06T08:28:59;0.90;;;0.77;;
9449;SDS011;4763;48.370;10.874;2023-08-06T08:31:28;1.10;;;0.87;;
9449;SDS011;4763;48.370;10.874;2023-08-06T08:33:54;3.23;;;0.80;;
9449;SDS011;4763;48.370;10.874;2023-08-06T08:36:21;1.80;;;1.20;;
9449;SDS011;4763;48.370;10.874;2023-08-06T08:38:48;0.83;;;0.60;;
9449;SDS011;4763;48.370;10.874;2023-08-06T08:41:18;1.57;;;0.80;;
9449;SDS011;4763;48.370;10.874;2023-08-06T08:43:46;0.70;;;0.70;;
9449;SDS011;4763;48.370;10.874;2023-08-06T08:46:15;0.93;;;0.83;;
9449;SDS011;4763;48.370;10.874;2023-08-06T08:48:44;2.23;;;0.87;;
9449;SDS011;4763;48.370;10.874;2023-08-06T08:51:13;1.60;;;0.87;;
9449;SDS011;4763;48.370;10.874;2023-08-06T08:53:42;0.70;;;0.70;;
9449;SDS011;4763;48.370;10.874;2023-08-06T08:56:12;1.43;;;0.90;;
9449;SDS011;4763;48.370;10.874;2023-08-06T08:58:39;1.07;;;0.60;;
9449;SDS011;4763;48.370;10.874;2023-08-06T09:01:07;1.20;;;0.60;;
9449;SDS011;4763;48.370;10.874;2023-08-06T09:03:36;3.00;;;0.80;;
9449;SDS011;4763;48.370;10.874;2023-08-06T09:06:04;1.10;;;0.63;;
9449;SDS011;4763;48.370;10.874;2023-08-06T09:08:33;1.30;;;0.57;;
9449;SDS011;4763;48.370;10.874;2023-08-06T09:11:04;3.43;;;0.60;;
9449;SDS011;4763;48.370;10.874;2023-08-06T09:13:31;0.40;;;0.40;;
9449;SDS011;4763;48.370;10.874;2023-08-06T09:15:58;0.40;;;0.40;;
9449;SDS011;4763;48.370;10.874;2023-08-06T09:18:25;0.70;;;0.53;;
9449;SDS011;4763;48.370;10.874;2023-08-06T09:20:52;1.83;;;0.57;;
9449;SDS011;4763;48.370;10.874;2023-08-06T09:23:21;0.50;;;0.50;;
9449;SDS011;4763;48.370;10.874;2023-08-06T09:25:54;2.00;;;0.70;;
9449;SDS011;4763;48.370;10.874;2023-08-06T09:28:21;0.90;;;0.60;;
9449;SDS011;4763;48.370;10.874;2023-08-06T09:30:49;0.90;;;0.60;;
9449;SDS011;4763;48.370;10.874;2023-08-06T09:33:17;2.03;;;0.80;;
9449;SDS011;4763;48.370;10.874;2023-08-06T09:35:45;0.60;;;0.53;;
9449;SDS011;4763;48.370;10.874;2023-08-06T09:38:13;0.50;;;0.50;;
9449;SDS011;4763;48.370;10.874;2023-08-06T09:40:44;1.03;;;0.33;;
9449;SDS011;4763;48.370;10.874;2023-08-06T09:43:11;0.60;;;0.60;;
9449;SDS011;4763;48.370;10.874;2023-08-06T09:45:38;0.20;;;0.20;;
9449;SDS011;4763;48.370;10.874;2023-08-06T09:48:06;0.73;;;0.53;;
9449;SDS011;4763;48.370;10.874;2023-08-06T09:50:34;0.30;;;0.30;;
9449;SDS011;4763;48.370;10.874;2023-08-06T09:53:02;3.27;;;0.70;;
9449;SDS011;4763;48.370;10.874;2023-08-06T09:55:30;0.53;;;0.50;;
9449;SDS011;4763;48.370;10.874;2023-08-06T09:57:59;0.40;;;0.40;;
9449;SDS011;4763;48.370;10.874;2023-08-06T10:00:27;0.50;;;0.50;;
9449;SDS011;4763;48.370;10.874;2023-08-06T10:02:59;1.17;;;0.60;;
9449;SDS011;4763;48.370;10.874;2023-08-06T10:05:26;0.90;;;0.60;;
9449;SDS011;4763;48.370;10.874;2023-08-06T10:07:53;0.70;;;0.50;;
9449;SDS011;4763;48.370;10.874;2023-08-06T10:10:23;0.50;;;0.50;;
9449;SDS011;4763;48.370;10.874;2023-08-06T10:12:51;1.40;;;0.60;;
9449;SDS011;4763;48.370;10.874;2023-08-06T10:15:23;0.73;;;0.50;;
9449;SDS011;4763;48.370;10.874;2023-08-06T10:17:54;0.40;;;0.40;;
9449;SDS011;4763;48.370;10.874;2023-08-06T10:20:22;2.37;;;0.63;;
9449;SDS011;4763;48.370;10.874;2023-08-06T10:22:59;0.50;;;0.40;;
9449;SDS011;4763;48.370;10.874;2023-08-06T10:25:28;0.20;;;0.20;;
9449;SDS011;4763;48.370;10.874;2023-08-06T10:27:57;0.50;;;0.30;;
9449;SDS011;4763;48.370;10.874;2023-08-06T10:30:26;1.27;;;0.60;;
9449;SDS011;4763;48.370;10.874;2023-08-06T10:32:54;0.53;;;0.43;;
9449;SDS011;4763;48.370;10.874;2023-08-06T10:35:31;0.40;;;0.40;;
9449;SDS011;4763;48.370;10.874;2023-08-06T10:38:04;0.30;;;0.30;;
9449;SDS011;4763;48.370;10.874;2023-08-06T10:40:33;0.40;;;0.40;;
9449;SDS011;4763;48.370;10.874;2023-08-06T10:43:00;0.30;;;0.23;;
9449;SDS011;4763;48.370;10.874;2023-08-06T10:45:28;0.57;;;0.40;;
9449;SDS011;4763;48.370;10.874;2023-08-06T10:47:55;0.67;;;0.50;;
9449;SDS011;4763;48.370;10.874;2023-08-06T10:50:23;0.47;;;0.40;;
9449;SDS011;4763;48.370;10.874;2023-08-06T10:52:50;0.57;;;0.23;;
9449;SDS011;4763;48.370;10.874;2023-08-06T10:55:24;0.50;;;0.43;;
9449;SDS011;4763;48.370;10.874;2023-08-06T10:57:52;0.30;;;0.30;;
9449;SDS011;4763;48.370;10.874;2023-08-06T11:00:20;0.70;;;0.50;;
9449;SDS011;4763;48.370;10.874;2023-08-06T11:02:50;0.53;;;0.30;;
9449;SDS011;4763;48.370;10.874;2023-08-06T11:05:17;1.00;;;0.30;;
9449;SDS011;4763;48.370;10.874;2023-08-06T11:07:45;0.83;;;0.40;;
9449;SDS011;4763;48.370;10.874;2023-08-06T11:10:14;0.60;;;0.60;;
9449;SDS011;4763;48.370;10.874;2023-08-06T11:12:41;2.57;;;0.30;;
9449;SDS011;4763;48.370;10.874;2023-08-06T11:15:08;0.10;;;0.10;;
9449;SDS011;4763;48.370;10.874;2023-08-06T11:17:36;0.20;;;0.20;;
9449;SDS011;4763;48.370;10.874;2023-08-06T11:20:07;0.27;;;0.27;;
9449;SDS011;4763;48.370;10.874;2023-08-06T11:22:35;0.30;;;0.20;;
9449;SDS011;4763;48.370;10.874;2023-08-06T11:25:03;0.50;;;0.30;;
9449;SDS011;4763;48.370;10.874;2023-08-06T11:27:31;0.50;;;0.50;;
9449;SDS011;4763;48.370;10.874;2023-08-06T11:29:58;0.20;;;0.20;;
9449;SDS011;4763;48.370;10.874;2023-08-06T11:32:25;2.30;;;0.40;;
9449;SDS011;4763;48.370;10.874;2023-08-06T11:34:53;2.13;;;0.60;;
9449;SDS011;4763;48.370;10.874;2023-08-06T11:37:22;1.17;;;0.30;;
9449;SDS011;4763;48.370;10.874;2023-08-06T11:39:52;0.60;;;0.30;;
9449;SDS011;4763;48.370;10.874;2023-08-06T11:42:19;0.43;;;0.30;;
9449;SDS011;4763;48.370;10.874;2023-08-06T11:44:45;0.30;;;0.30;;
9449;SDS011;4763;48.370;10.874;2023-08-06T11:47:14;0.20;;;0.20;;
9449;SDS011;4763;48.370;10.874;2023-08-06T11:49:45;1.70;;;0.40;;
9449;SDS011;4763;48.370;10.874;2023-08-06T11:52:14;0.30;;;0.30;;
9449;SDS011;4763;48.370;10.874;2023-08-06T11:54:45;0.30;;;0.30;;
9449;SDS011;4763;48.370;10.874;2023-08-06T11:57:15;0.23;;;0.23;;
9449;SDS011;4763;48.370;10.874;2023-08-06T11:59:43;0.30;;;0.30;;
9449;SDS011;4763;48.370;10.874;2023-08-06T12:02:09;0.30;;;0.30;;
9449;SDS011;4763;48.370;10.874;2023-08-06T12:07:30;0.97;;;0.47;;
9449;SDS011;4763;48.370;10.874;2023-08-06T12:09:59;0.40;;;0.30;;
9449;SDS011;4763;48.370;10.874;2023-08-06T12:12:26;0.30;;;0.30;;
9449;SDS011;4763;48.370;10.874;2023-08-06T12:14:54;0.30;;;0.30;;
9449;SDS011;4763;48.370;10.874;2023-08-06T12:17:21;0.50;;;0.30;;
9449;SDS011;4763;48.370;10.874;2023-08-06T12:19:48;0.20;;;0.20;;
9449;SDS011;4763;48.370;10.874;2023-08-06T12:22:15;1.90;;;0.50;;
9449;SDS011;4763;48.370;10.874;2023-08-06T12:24:44;1.03;;;0.40;;
9449;SDS011;4763;48.370;10.874;2023-08-06T12:27:13;0.40;;;0.20;;
9449;SDS011;4763;48.370;10.874;2023-08-06T12:29:42;0.87;;;0.20;;
9449;SDS011;4763;48.370;10.874;2023-08-06T12:32:09;0.33;;;0.33;;
9449;SDS011;4763;48.370;10.874;2023-08-06T12:34:37;0.70;;;0.30;;
9449;SDS011;4763;48.370;10.874;2023-08-06T12:37:04;0.43;;;0.40;;
9449;SDS011;4763;48.370;10.874;2023-08-06T12:39:33;0.30;;;0.30;;
9449;SDS011;4763;48.370;10.874;2023-08-06T12:42:00;0.43;;;0.43;;
9449;SDS011;4763;48.370;10.874;2023-08-06T12:44:28;0.40;;;0.40;;
9449;SDS011;4763;48.370;10.874;2023-08-06T12:46:57;0.33;;;0.33;;
9449;SDS011;4763;48.370;10.874;2023-08-06T12:49:24;0.40;;;0.23;;
9449;SDS011;4763;48.370;10.874;2023-08-06T12:51:52;0.47;;;0.20;;
9449;SDS011;4763;48.370;10.874;2023-08-06T12:54:19;0.33;;;0.20;;
9449;SDS011;4763;48.370;10.874;2023-08-06T12:56:46;0.20;;;0.20;;
9449;SDS011;4763;48.370;10.874;2023-08-06T12:59:14;0.80;;;0.30;;
9449;SDS011;4763;48.370;10.874;2023-08-06T13:01:43;0.20;;;0.20;;
9449;SDS011;4763;48.370;10.874;2023-08-06T13:04:10;0.20;;;0.20;;
9449;SDS011;4763;48.370;10.874;2023-08-06T13:06:38;0.23;;;0.23;;
9449;SDS011;4763;48.370;10.874;2023-08-06T13:09:05;0.53;;;0.50;;
9449;SDS011;4763;48.370;10.874;2023-08-06T13:11:33;0.27;;;0.20;;
9449;SDS011;4763;48.370;10.874;2023-08-06T13:14:03;0.17;;;0.17;;
9449;SDS011;4763;48.370;10.874;2023-08-06T13:16:31;3.40;;;0.50;;
9449;SDS011;4763;48.370;10.874;2023-08-06T13:19:00;1.33;;;0.57;;
9449;SDS011;4763;48.370;10.874;2023-08-06T13:21:31;0.40;;;0.40;;
9449;SDS011;4763;48.370;10.874;2023-08-06T13:24:02;0.67;;;0.50;;
9449;SDS011;4763;48.370;10.874;2023-08-06T13:26:30;0.60;;;0.40;;
9449;SDS011;4763;48.370;10.874;2023-08-06T13:28:57;0.30;;;0.30;;
9449;SDS011;4763;48.370;10.874;2023-08-06T13:31:28;0.50;;;0.50;;
9449;SDS011;4763;48.370;10.874;2023-08-06T13:33:55;0.80;;;0.50;;
9449;SDS011;4763;48.370;10.874;2023-08-06T13:36:24;0.40;;;0.40;;
9449;SDS011;4763;48.370;10.874;2023-08-06T13:38:51;1.13;;;0.43;;
9449;SDS011;4763;48.370;10.874;2023-08-06T13:41:18;0.30;;;0.30;;
9449;SDS011;4763;48.370;10.874;2023-08-06T13:43:45;0.27;;;0.27;;
9449;SDS011;4763;48.370;10.874;2023-08-06T13:46:12;0.30;;;0.30;;
9449;SDS011;4763;48.370;10.874;2023-08-06T13:48:41;0.50;;;0.40;;
9449;SDS011;4763;48.370;10.874;2023-08-06T13:51:08;0.43;;;0.23;;
9449;SDS011;4763;48.370;10.874;2023-08-06T13:53:36;0.67;;;0.40;;
9449;SDS011;4763;48.370;10.874;2023-08-06T13:56:04;0.20;;;0.20;;
9449;SDS011;4763;48.370;10.874;2023-08-06T13:58:31;0.30;;;0.30;;
9449;SDS011;4763;48.370;10.874;2023-08-06T14:00:58;0.30;;;0.30;;
9449;SDS011;4763;48.370;10.874;2023-08-06T14:03:25;0.50;;;0.50;;
9449;SDS011;4763;48.370;10.874;2023-08-06T14:05:52;0.23;;;0.23;;
9449;SDS011;4763;48.370;10.874;2023-08-06T14:08:20;0.50;;;0.50;;
9449;SDS011;4763;48.370;10.874;2023-08-06T14:10:49;1.00;;;0.60;;
9449;SDS011;4763;48.370;10.874;2023-08-06T14:13:17;1.07;;;0.30;;
9449;SDS011;4763;48.370;10.874;2023-08-06T14:15:44;0.43;;;0.30;;
9449;SDS011;4763;48.370;10.874;2023-08-06T14:18:12;0.47;;;0.47;;
9449;SDS011;4763;48.370;10.874;2023-08-06T14:20:40;0.30;;;0.30;;
9449;SDS011;4763;48.370;10.874;2023-08-06T14:23:07;0.30;;;0.30;;
9449;SDS011;4763;48.370;10.874;2023-08-06T14:25:34;0.30;;;0.30;;
9449;SDS011;4763;48.370;10.874;2023-08-06T14:28:02;0.20;;;0.20;;
9449;SDS011;4763;48.370;10.874;2023-08-06T14:30:31;0.20;;;0.20;;
9449;SDS011;4763;48.370;10.874;2023-08-06T14:32:58;0.87;;;0.53;;
9449;SDS011;4763;48.370;10.874;2023-08-06T14:35:25;0.40;;;0.40;;
9449;SDS011;4763;48.370;10.874;2023-08-06T14:37:52;1.03;;;0.70;;
9449;SDS011;4763;48.370;10.874;2023-08-06T14:40:19;0.47;;;0.47;;
9449;SDS011;4763;48.370;10.874;2023-08-06T14:42:45;0.20;;;0.20;;
9449;SDS011;4763;48.370;10.874;2023-08-06T14:45:14;0.40;;;0.40;;
9449;SDS011;4763;48.370;10.874;2023-08-06T14:47:40;0.93;;;0.70;;
9449;SDS011;4763;48.370;10.874;2023-08-06T14:50:07;0.70;;;0.70;;
9449;SDS011;4763;48.370;10.874;2023-08-06T14:52:34;0.50;;;0.50;;
9449;SDS011;4763;48.370;10.874;2023-08-06T14:55:01;0.40;;;0.40;;
9449;SDS011;4763;48.370;10.874;2023-08-06T14:57:28;1.00;;;0.70;;
9449;SDS011;4763;48.370;10.874;2023-08-06T14:59:56;0.50;;;0.50;;
9449;SDS011;4763;48.370;10.874;2023-08-06T15:02:25;0.40;;;0.40;;
9449;SDS011;4763;48.370;10.874;2023-08-06T15:04:52;1.03;;;0.50;;
9449;SDS011;4763;48.370;10.874;2023-08-06T15:07:18;3.53;;;0.77;;